Terminal Aerodrome Forecast
Issued by NWS Bismarck, ND

Home | Current Version | Previous Version | Text Only | Print | Product List | Glossary Off
Versions: 1 2 3 4 5 6 7 8 9 10 11 12 13 14 15 16 17 18 19

000
FTUS43 KBIS 240533
TAFISN
TAF
KISN 240533Z 2406/2506 36005KT P6SM -SHRA SCT020 OVC045
      TEMPO 2408/2410 SCT015 BKN020
     FM241000 01005KT P6SM -SHRA OVC020
     FM241500 36007KT P6SM VCSH OVC025
     FM242100 01008KT P6SM BKN040
     FM250200 02004KT P6SM BKN050=

USA.gov is the U.S. government's official web portal to all federal, state and local government web resources and services.